Terminal Aerodrome Forecast
Issued by NWS Cleveland, OH

Home | Current Version | Previous Version | Text Only | Print | Product List | Glossary On
Versions: 1 2 3 4 5 6 7 8 9 10 11 12 13 14
676
FTUS41 KCLE 270229 AAA
TAFTOL
TAF AMD
KTOL 270229Z 2702/2724 25008KT P6SM VCTS SCT040CB BKN120
     FM270330 26007KT P6SM FEW025 SCT200
      TEMPO 2705/2709 SCT008 BKN015
     FM271200 30006KT P6SM FEW040 SCT250
     FM272000 27010KT P6SM SCT050=

USA.gov is the U.S. government's official web portal to all federal, state and local government web resources and services.